createdAt,value
2022-10-11T00:01:52.373Z,68.10
2022-10-11T00:04:38.088Z,68.53
2022-10-11T00:07:23.805Z,65.38
2022-10-11T00:10:09.670Z,65.58
2022-10-11T00:12:55.457Z,63.50
2022-10-11T00:15:41.501Z,62.07
2022-10-11T00:18:27.275Z,61.22
2022-10-11T00:21:13.035Z,59.62
2022-10-11T00:23:58.905Z,59.75
2022-10-11T00:26:47.019Z,61.28
2022-10-11T00:29:33.274Z,71.37
2022-10-11T00:32:19.249Z,74.26
2022-10-11T00:35:05.241Z,76.03
2022-10-11T00:37:51.201Z,79.21
2022-10-11T00:40:37.441Z,80.10
2022-10-11T00:43:23.409Z,80.16
2022-10-11T00:46:09.462Z,80.29
2022-10-11T00:48:55.763Z,81.65
2022-10-11T00:51:41.586Z,82.03
2022-10-11T00:54:27.338Z,81.36
2022-10-11T00:57:13.367Z,79.73
2022-10-11T00:59:59.185Z,78.05
2022-10-11T01:02:45.080Z,76.30
2022-10-11T01:05:31.044Z,75.19
2022-10-11T01:08:16.779Z,77.68
2022-10-11T01:11:02.523Z,78.99
2022-10-11T01:13:48.361Z,79.81
2022-10-11T01:16:34.259Z,81.46
2022-10-11T01:19:20.165Z,81.96
2022-10-11T01:22:05.936Z,81.72
2022-10-11T01:24:51.869Z,81.30
2022-10-11T01:27:37.762Z,80.60
2022-10-11T01:30:23.567Z,81.90
2022-10-11T01:33:09.505Z,80.58
2022-10-11T01:35:55.375Z,77.26
2022-10-11T01:38:41.198Z,71.99
2022-10-11T01:41:29.141Z,67.59
2022-10-11T01:44:15.071Z,66.08
2022-10-11T01:47:01.097Z,66.76
2022-10-11T01:49:48.941Z,63.82
2022-10-11T01:52:34.732Z,60.39
2022-10-11T01:55:20.493Z,61.02
2022-10-11T01:58:06.321Z,58.96
2022-10-11T02:00:52.267Z,57.21
2022-10-11T02:03:38.322Z,58.47
2022-10-11T02:06:24.043Z,61.99
2022-10-11T02:09:09.913Z,63.86
2022-10-11T02:11:55.954Z,69.52
2022-10-11T02:14:41.815Z,71.22
2022-10-11T02:17:27.827Z,67.87
2022-10-11T02:20:13.644Z,69.87
2022-10-11T02:22:59.541Z,72.80
2022-10-11T02:25:45.449Z,75.15
2022-10-11T02:28:31.280Z,73.47
2022-10-11T02:31:17.178Z,72.61
2022-10-11T02:34:03.023Z,74.02
2022-10-11T02:36:48.809Z,74.22
2022-10-11T02:39:34.742Z,74.32
2022-10-11T02:42:20.501Z,77.41
2022-10-11T02:45:06.202Z,79.64
2022-10-11T02:47:52.120Z,81.15
2022-10-11T02:50:37.969Z,79.32
2022-10-11T02:53:23.804Z,76.48
2022-10-11T02:56:11.727Z,74.70
2022-10-11T02:58:57.590Z,74.32
2022-10-11T03:01:43.447Z,75.07
2022-10-11T03:04:29.351Z,77.47
2022-10-11T03:07:15.175Z,77.83
2022-10-11T03:10:00.947Z,79.04
2022-10-11T03:12:46.739Z,78.38
2022-10-11T03:15:32.548Z,78.16
2022-10-11T03:18:18.327Z,76.97
2022-10-11T03:21:04.115Z,76.31
2022-10-11T03:23:49.960Z,73.92
2022-10-11T03:26:35.664Z,71.47
2022-10-11T03:29:21.440Z,68.76
2022-10-11T03:32:07.386Z,65.89
2022-10-11T03:34:53.305Z,65.41
2022-10-11T03:37:39.419Z,63.59
2022-10-11T03:40:25.217Z,61.30
2022-10-11T03:43:11.131Z,60.76
2022-10-11T03:45:57.176Z,59.64
2022-10-11T03:48:42.988Z,61.60
2022-10-11T03:51:28.762Z,63.47
2022-10-11T03:54:14.609Z,62.04
2022-10-11T03:57:00.435Z,60.59
2022-10-11T03:59:46.389Z,62.06
2022-10-11T04:02:35.729Z,60.55
2022-10-11T04:05:24.373Z,60.39
2022-10-11T04:08:12.280Z,60.15
2022-10-11T04:10:58.365Z,59.62
2022-10-11T04:13:44.315Z,58.39
2022-10-11T04:16:30.175Z,57.10
2022-10-11T04:19:16.264Z,58.50
2022-10-11T04:22:04.032Z,61.53
2022-10-11T04:24:49.849Z,62.26
2022-10-11T04:27:35.756Z,63.12
2022-10-11T04:30:21.634Z,64.40
2022-10-11T04:33:07.434Z,64.62
2022-10-11T04:35:53.198Z,65.54
2022-10-11T04:38:39.026Z,67.23
2022-10-11T04:41:24.775Z,69.32
2022-10-11T04:44:10.614Z,71.56
2022-10-11T04:46:56.458Z,68.94
2022-10-11T04:49:42.183Z,70.44
2022-10-11T04:52:28.078Z,70.16
2022-10-11T04:55:13.994Z,74.26
2022-10-11T04:57:59.805Z,76.19
2022-10-11T05:00:45.794Z,77.87
2022-10-11T05:03:31.731Z,80.88
2022-10-11T05:06:17.550Z,84.39
2022-10-11T05:09:03.422Z,85.26
2022-10-11T05:11:49.269Z,84.53
2022-10-11T05:14:35.099Z,82.49
2022-10-11T05:17:21.001Z,84.09
2022-10-11T05:20:06.871Z,83.52
2022-10-11T05:22:52.736Z,81.13
2022-10-11T05:25:38.739Z,83.59
2022-10-11T05:28:24.645Z,81.97
2022-10-11T05:31:10.493Z,83.92
2022-10-11T05:33:56.440Z,85.29
2022-10-11T05:36:42.232Z,85.99
2022-10-11T05:39:28.159Z,81.45
2022-10-11T05:42:13.986Z,77.94
2022-10-11T05:44:59.788Z,72.33
2022-10-11T05:47:45.537Z,69.07
2022-10-11T05:50:31.370Z,66.66
2022-10-11T05:53:17.217Z,64.32
2022-10-11T05:56:03.381Z,62.20
2022-10-11T05:58:49.752Z,60.50
2022-10-11T06:01:35.693Z,60.95
2022-10-11T06:04:21.412Z,63.26
2022-10-11T06:07:07.326Z,65.30
2022-10-11T06:09:53.094Z,63.96
2022-10-11T06:12:38.897Z,62.03
2022-10-11T06:15:24.917Z,61.93
2022-10-11T06:18:10.601Z,67.58
2022-10-11T06:20:56.541Z,69.77
2022-10-11T06:23:42.417Z,71.67
2022-10-11T06:26:28.221Z,69.30
2022-10-11T06:29:14.235Z,68.75
2022-10-11T06:32:00.080Z,71.90
2022-10-11T06:34:45.901Z,75.31
2022-10-11T06:37:31.732Z,75.56
2022-10-11T06:40:17.488Z,75.08
2022-10-11T06:43:03.365Z,73.95
2022-10-11T06:45:49.243Z,70.85
2022-10-11T06:48:35.044Z,69.88
2022-10-11T06:51:20.944Z,75.70
2022-10-11T06:54:06.848Z,80.13
2022-10-11T06:56:52.822Z,79.57
2022-10-11T06:59:38.736Z,78.58
2022-10-11T07:02:24.563Z,74.43
2022-10-11T07:05:10.468Z,71.95
2022-10-11T07:07:56.339Z,70.74
2022-10-11T07:10:42.240Z,67.97
2022-10-11T07:13:28.250Z,66.51
2022-10-11T07:16:14.175Z,71.15
2022-10-11T07:19:02.039Z,76.39
2022-10-11T07:21:48.123Z,78.68
2022-10-11T07:24:33.899Z,77.95
2022-10-11T07:27:21.853Z,76.35
2022-10-11T07:30:07.686Z,73.94
2022-10-11T07:32:53.599Z,70.87
2022-10-11T07:35:39.445Z,69.08
2022-10-11T07:38:25.396Z,66.60
2022-10-11T07:41:11.326Z,63.25
2022-10-11T07:43:57.179Z,64.65
2022-10-11T07:46:42.960Z,67.50
2022-10-11T07:49:28.907Z,68.58
2022-10-11T07:52:14.760Z,71.74
2022-10-11T07:55:00.609Z,71.91
2022-10-11T07:57:46.371Z,70.45
2022-10-11T08:00:32.285Z,72.90
2022-10-11T08:03:18.194Z,76.97
2022-10-11T08:06:04.437Z,76.82
2022-10-11T08:08:50.682Z,73.68
2022-10-11T08:11:36.685Z,73.46
2022-10-11T08:14:22.465Z,73.12
2022-10-11T08:17:08.413Z,77.85
2022-10-11T08:19:54.266Z,73.68
2022-10-11T08:22:40.113Z,72.76
2022-10-11T08:25:25.902Z,71.61
2022-10-11T08:28:12.034Z,81.31
2022-10-11T08:30:57.776Z,86.91
2022-10-11T08:33:43.732Z,90.58
2022-10-11T08:36:29.604Z,96.49
2022-10-11T08:39:16.053Z,100.00
2022-10-11T08:42:02.070Z,100.00
2022-10-11T08:45:27.656Z,100.00
2022-10-11T08:57:50.154Z,100.00
2022-10-11T09:00:36.096Z,100.00
2022-10-11T09:03:21.959Z,100.00
2022-10-11T09:06:08.516Z,100.00
2022-10-11T09:08:54.890Z,100.00
2022-10-11T09:11:40.790Z,100.00
2022-10-11T09:14:26.493Z,100.00
2022-10-11T09:17:12.626Z,100.00
2022-10-11T09:19:58.511Z,100.00
2022-10-11T09:22:44.316Z,100.00
2022-10-11T09:25:30.391Z,100.00
2022-10-11T09:28:16.368Z,100.00
2022-10-11T09:31:02.199Z,100.00
2022-10-11T09:33:48.345Z,100.00
2022-10-11T09:36:34.242Z,100.00
2022-10-11T09:39:20.203Z,100.00
2022-10-11T09:42:05.973Z,100.00
2022-10-11T09:44:51.904Z,100.00
2022-10-11T09:47:37.756Z,100.00
2022-10-11T09:50:23.587Z,100.00
2022-10-11T09:53:09.493Z,100.00
2022-10-11T09:55:55.284Z,100.00
2022-10-11T09:58:41.050Z,100.00
2022-10-11T10:01:27.047Z,100.00
2022-10-11T10:04:12.723Z,100.00
2022-10-11T10:06:58.714Z,100.00
2022-10-11T10:09:46.741Z,100.00
2022-10-11T10:12:32.598Z,100.00
2022-10-11T10:15:18.335Z,100.00
2022-10-11T10:18:04.174Z,100.00
2022-10-11T10:20:49.901Z,100.00
2022-10-11T10:23:35.761Z,100.00
2022-10-11T10:26:21.582Z,100.00
2022-10-11T10:29:07.344Z,100.00
2022-10-11T10:34:59.330Z,100.00
2022-10-11T10:37:45.014Z,100.00
2022-10-11T10:40:31.128Z,100.00
2022-10-11T10:43:16.818Z,100.00
2022-10-11T10:46:05.204Z,100.00
2022-10-11T10:51:57.210Z,100.00
2022-10-11T10:54:42.944Z,100.00
2022-10-11T10:57:28.830Z,100.00
2022-10-11T11:00:14.895Z,100.00
2022-10-11T11:03:01.002Z,98.72
2022-10-11T11:05:46.835Z,100.00
2022-10-11T11:08:32.520Z,100.00
2022-10-11T11:11:18.589Z,100.00
2022-10-11T11:14:04.360Z,100.00
2022-10-11T11:16:50.146Z,100.00
2022-10-11T11:19:36.170Z,94.07
2022-10-11T11:22:22.081Z,92.41
2022-10-11T11:25:07.845Z,93.76
2022-10-11T11:27:53.748Z,94.78
2022-10-11T11:30:39.540Z,90.49
2022-10-11T11:33:25.347Z,95.21
2022-10-11T11:36:11.349Z,87.75
2022-10-11T11:38:57.338Z,91.82
2022-10-11T11:41:43.335Z,84.63
2022-10-11T11:44:29.107Z,86.44
2022-10-11T11:47:14.844Z,85.32
2022-10-11T11:50:00.632Z,87.29
2022-10-11T11:52:46.403Z,88.68
2022-10-11T11:55:32.215Z,85.42
2022-10-11T11:58:18.068Z,89.97
2022-10-11T12:01:04.365Z,89.53
2022-10-11T12:03:50.486Z,88.03
2022-10-11T12:06:43.739Z,84.44
2022-10-11T12:09:38.717Z,87.96
2022-10-11T12:12:24.569Z,86.00
2022-10-11T12:15:10.416Z,86.05
2022-10-11T12:17:56.338Z,88.12
2022-10-11T12:20:42.295Z,87.64
2022-10-11T12:23:28.042Z,86.31
2022-10-11T12:26:13.818Z,86.55
2022-10-11T12:28:59.591Z,90.37
2022-10-11T12:31:46.311Z,90.72
2022-10-11T12:34:32.405Z,87.32
2022-10-11T12:37:18.372Z,82.04
2022-10-11T12:40:04.280Z,80.73
2022-10-11T12:42:50.139Z,81.19
2022-10-11T12:45:35.959Z,80.67
2022-10-11T12:48:21.950Z,74.86
2022-10-11T12:51:07.670Z,75.88
2022-10-11T12:54:14.437Z,73.06
2022-10-11T12:56:59.421Z,75.43
2022-10-11T12:59:45.182Z,79.61
2022-10-11T13:02:31.182Z,74.94
2022-10-11T13:05:17.272Z,74.17
2022-10-11T13:08:03.136Z,75.03
2022-10-11T13:10:49.025Z,75.63
2022-10-11T13:13:34.856Z,78.07
2022-10-11T13:16:20.759Z,74.54
2022-10-11T13:19:06.694Z,74.73
2022-10-11T13:21:52.691Z,73.93
2022-10-11T13:24:38.925Z,75.56
2022-10-11T13:27:24.799Z,70.52
2022-10-11T13:30:12.683Z,72.33
2022-10-11T13:32:58.572Z,72.12
2022-10-11T13:35:44.489Z,73.67
2022-10-11T13:38:30.293Z,71.77
2022-10-11T13:41:16.090Z,70.70
2022-10-11T13:44:01.825Z,73.83
2022-10-11T13:46:47.716Z,72.86
2022-10-11T13:49:33.574Z,73.68
2022-10-11T13:52:19.472Z,72.69
2022-10-11T13:55:05.375Z,73.24
2022-10-11T13:57:51.375Z,72.88
2022-10-11T14:00:37.328Z,75.68
2022-10-11T14:03:23.236Z,75.10
2022-10-11T14:06:09.444Z,76.66
2022-10-11T14:08:55.501Z,76.02
2022-10-11T14:11:43.451Z,75.89
2022-10-11T14:14:29.129Z,76.93
2022-10-11T14:17:17.062Z,75.67
2022-10-11T14:20:08.669Z,77.24
2022-10-11T14:22:56.976Z,77.88
2022-10-11T14:25:42.840Z,74.25
2022-10-11T14:28:28.696Z,75.54
2022-10-11T14:31:14.696Z,74.37
2022-10-11T14:34:00.765Z,74.52
2022-10-11T14:36:46.884Z,75.30
2022-10-11T14:39:32.811Z,74.27
2022-10-11T14:42:18.642Z,73.62
2022-10-11T14:45:04.537Z,72.91
2022-10-11T14:47:50.598Z,73.78
2022-10-11T14:50:36.525Z,76.53
2022-10-11T14:53:22.512Z,78.19
2022-10-11T14:56:08.745Z,79.93
2022-10-11T14:58:54.948Z,80.65
2022-10-11T15:01:40.892Z,77.89
2022-10-11T15:04:26.580Z,77.11
2022-10-11T15:07:12.555Z,76.18
2022-10-11T15:09:58.345Z,78.76
2022-10-11T15:12:44.159Z,78.28
2022-10-11T15:15:29.944Z,78.73
2022-10-11T15:18:15.686Z,78.78
2022-10-11T15:21:01.558Z,79.68
2022-10-11T15:23:47.886Z,81.98
2022-10-11T15:26:33.683Z,82.10
2022-10-11T15:29:19.691Z,79.61
2022-10-11T15:32:05.627Z,79.36
2022-10-11T15:34:53.525Z,78.44
2022-10-11T15:37:39.390Z,79.29
2022-10-11T15:40:25.132Z,81.97
2022-10-11T15:43:11.143Z,83.21
2022-10-11T15:45:57.075Z,83.85
2022-10-11T15:48:42.859Z,84.81
2022-10-11T15:51:28.657Z,83.31
2022-10-11T15:54:14.563Z,86.09
2022-10-11T15:57:00.371Z,86.95
2022-10-11T15:59:46.298Z,88.28
2022-10-11T16:02:32.079Z,87.51
2022-10-11T16:05:19.942Z,88.54
2022-10-11T16:08:05.786Z,87.91
2022-10-11T16:10:51.632Z,86.67
2022-10-11T16:13:37.651Z,87.11
2022-10-11T16:16:23.725Z,85.71
2022-10-11T16:19:09.537Z,86.79
2022-10-11T16:21:55.424Z,87.99
2022-10-11T16:24:41.242Z,88.69
2022-10-11T16:27:27.032Z,91.18
2022-10-11T16:30:12.965Z,91.98
2022-10-11T16:32:58.736Z,93.88
2022-10-11T16:35:44.724Z,94.33
2022-10-11T16:38:31.044Z,93.87
2022-10-11T16:41:16.822Z,93.87
2022-10-11T16:44:02.800Z,94.49
2022-10-11T16:46:48.635Z,92.24
2022-10-11T16:49:34.449Z,92.46
2022-10-11T16:52:20.381Z,91.34
2022-10-11T16:55:06.183Z,89.97
2022-10-11T16:57:52.084Z,91.58
2022-10-11T17:00:38.007Z,91.99
2022-10-11T17:03:23.845Z,89.89
2022-10-11T17:06:09.959Z,91.74
2022-10-11T17:08:56.144Z,90.01
2022-10-11T17:11:41.992Z,92.00
2022-10-11T17:14:27.824Z,90.61
2022-10-11T17:17:13.629Z,87.91
2022-10-11T17:19:59.521Z,86.92
2022-10-11T17:22:45.336Z,86.17
2022-10-11T17:25:31.090Z,87.70
2022-10-11T17:28:17.159Z,88.33
2022-10-11T17:31:03.449Z,87.11
2022-10-11T17:33:49.449Z,88.67
2022-10-11T17:36:35.496Z,89.47
2022-10-11T17:39:21.343Z,89.26
2022-10-11T17:42:07.376Z,88.46
2022-10-11T17:44:53.241Z,89.83
2022-10-11T17:47:41.119Z,88.85
2022-10-11T17:50:26.987Z,88.31
2022-10-11T17:53:12.700Z,87.67
2022-10-11T17:55:58.534Z,88.91
2022-10-11T17:58:44.376Z,90.00
2022-10-11T18:01:30.261Z,89.09
2022-10-11T18:04:16.159Z,86.95
2022-10-11T18:07:02.135Z,85.94
2022-10-11T18:09:47.980Z,89.03
2022-10-11T18:12:33.846Z,88.37
2022-10-11T18:15:19.855Z,89.63
2022-10-11T18:18:05.786Z,90.85
2022-10-11T18:20:51.674Z,95.63
2022-10-11T18:23:37.481Z,94.38
2022-10-11T18:26:26.699Z,96.36
2022-10-11T18:29:16.066Z,94.81
2022-10-11T18:32:01.980Z,96.08
2022-10-11T18:34:47.775Z,95.88
2022-10-11T18:37:33.613Z,97.49
2022-10-11T18:40:19.362Z,96.57
2022-10-11T18:43:05.347Z,95.14
2022-10-11T18:45:51.201Z,95.02
2022-10-11T18:48:37.039Z,95.08
2022-10-11T18:51:22.828Z,95.20
2022-10-11T18:54:08.541Z,93.33
2022-10-11T18:56:54.494Z,93.71
2022-10-11T18:59:40.435Z,94.65
2022-10-11T19:02:26.070Z,93.68
2022-10-11T19:05:11.902Z,91.07
2022-10-11T19:07:57.838Z,91.27
2022-10-11T19:10:43.744Z,90.81
2022-10-11T19:13:29.553Z,91.12
2022-10-11T19:16:15.400Z,91.19
2022-10-11T19:19:03.166Z,90.75
2022-10-11T19:21:51.196Z,93.04
2022-10-11T19:24:37.033Z,92.63
2022-10-11T19:27:22.746Z,94.65
2022-10-11T19:30:08.597Z,99.94
2022-10-11T19:32:54.514Z,100.00
2022-10-11T19:35:40.459Z,100.00
2022-10-11T19:38:26.404Z,100.00
2022-10-11T19:41:12.280Z,100.00
2022-10-11T19:43:58.246Z,100.00
2022-10-11T19:46:51.632Z,100.00
2022-10-11T19:49:38.434Z,100.00
2022-10-11T19:52:24.254Z,100.00
2022-10-11T19:55:10.228Z,100.00
2022-10-11T19:57:55.926Z,100.00
2022-10-11T20:00:41.843Z,100.00
2022-10-11T20:03:27.806Z,100.00
2022-10-11T20:06:13.721Z,100.00
2022-10-11T20:09:27.461Z,100.00
2022-10-11T20:12:07.431Z,100.00
2022-10-11T20:14:53.289Z,100.00
2022-10-11T20:17:39.053Z,100.00
2022-10-11T20:20:24.931Z,100.00
2022-10-11T20:23:14.765Z,100.00
2022-10-11T20:26:04.697Z,100.00
2022-10-11T20:28:55.700Z,100.00
2022-10-11T20:31:41.892Z,100.00
2022-10-11T20:34:27.824Z,100.00
2022-10-11T20:37:13.770Z,100.00
2022-10-11T20:39:59.565Z,100.00
2022-10-11T20:42:48.585Z,100.00
2022-10-11T20:45:34.365Z,100.00
2022-10-11T20:48:22.290Z,100.00
2022-10-11T20:51:08.063Z,100.00
2022-10-11T20:53:54.003Z,100.00
2022-10-11T20:56:39.847Z,100.00
2022-10-11T20:59:25.798Z,100.00
2022-10-11T21:02:14.334Z,100.00
2022-10-11T21:05:04.221Z,100.00
2022-10-11T21:07:50.310Z,100.00
2022-10-11T21:10:36.199Z,100.00
2022-10-11T21:13:22.209Z,100.00
2022-10-11T21:16:07.974Z,100.00
2022-10-11T21:18:53.733Z,100.00
2022-10-11T21:21:39.671Z,100.00
2022-10-11T21:24:25.664Z,100.00
2022-10-11T21:27:11.496Z,100.00
2022-10-11T21:29:57.175Z,100.00
2022-10-11T21:32:43.064Z,100.00
2022-10-11T21:35:28.933Z,100.00
2022-10-11T21:38:14.926Z,100.00
2022-10-11T21:41:00.833Z,100.00
2022-10-11T21:43:46.848Z,100.00
2022-10-11T21:49:38.689Z,100.00
2022-10-11T21:52:24.514Z,100.00
2022-10-11T21:55:10.462Z,100.00
2022-10-11T21:57:56.332Z,100.00
2022-10-11T22:00:42.263Z,100.00
2022-10-11T22:03:28.234Z,100.00
2022-10-11T22:06:14.041Z,100.00
2022-10-11T22:09:00.093Z,100.00
2022-10-11T22:11:46.044Z,100.00
2022-10-11T22:14:31.861Z,100.00
2022-10-11T22:17:17.882Z,100.00
2022-10-11T22:20:03.790Z,100.00
2022-10-11T22:22:49.585Z,100.00
2022-10-11T22:25:35.446Z,100.00
2022-10-11T22:28:21.358Z,100.00
2022-10-11T22:31:07.286Z,100.00
2022-10-11T22:33:53.146Z,100.00
2022-10-11T22:36:39.065Z,100.00
2022-10-11T22:39:25.053Z,100.00
2022-10-11T22:42:10.939Z,100.00
2022-10-11T22:44:56.832Z,100.00
2022-10-11T22:47:42.581Z,100.00
2022-10-11T22:50:28.611Z,100.00
2022-10-11T22:53:16.531Z,100.00
2022-10-11T22:56:02.355Z,100.00
2022-10-11T22:58:48.274Z,100.00
2022-10-11T23:01:34.215Z,100.00
2022-10-11T23:04:19.897Z,100.00
2022-10-11T23:07:05.842Z,100.00
2022-10-11T23:09:51.678Z,100.00
2022-10-11T23:12:37.599Z,100.00
2022-10-11T23:15:23.521Z,100.00
2022-10-11T23:18:09.441Z,100.00
2022-10-11T23:20:55.378Z,100.00
2022-10-11T23:23:41.224Z,100.00
2022-10-11T23:26:27.022Z,100.00
2022-10-11T23:29:12.936Z,99.19
2022-10-11T23:31:58.674Z,99.80
2022-10-11T23:34:44.570Z,97.16
2022-10-11T23:37:30.364Z,90.17
2022-10-11T23:40:16.095Z,90.97
2022-10-11T23:43:02.008Z,91.44
2022-10-11T23:45:47.794Z,90.29
2022-10-11T23:48:33.694Z,94.39
2022-10-11T23:51:19.487Z,95.00
2022-10-11T23:54:05.265Z,93.26
2022-10-11T23:56:53.062Z,94.09
2022-10-11T23:59:38.982Z,94.90
